sensor_id;sensor_type;location;lat;lon;timestamp;temperature;humidity
43227;DHT22;28839;52.404;9.808;2023-02-18T00:00:20;7.40;99.90
43227;DHT22;28839;52.404;9.808;2023-02-18T00:07:17;7.40;99.90
43227;DHT22;28839;52.404;9.808;2023-02-18T00:14:14;7.30;99.90
43227;DHT22;28839;52.404;9.808;2023-02-18T00:21:08;7.40;99.90
43227;DHT22;28839;52.404;9.808;2023-02-18T00:28:03;7.40;99.90
43227;DHT22;28839;52.404;9.808;2023-02-18T00:34:57;7.40;99.90
43227;DHT22;28839;52.404;9.808;2023-02-18T00:41:51;7.40;99.90
43227;DHT22;28839;52.404;9.808;2023-02-18T00:48:46;7.40;99.90
43227;DHT22;28839;52.404;9.808;2023-02-18T00:55:41;7.50;99.90
43227;DHT22;28839;52.404;9.808;2023-02-18T01:02:35;7.40;99.90
43227;DHT22;28839;52.404;9.808;2023-02-18T01:09:31;7.30;99.90
43227;DHT22;28839;52.404;9.808;2023-02-18T01:16:25;7.50;99.90
43227;DHT22;28839;52.404;9.808;2023-02-18T01:23:19;7.50;99.90
43227;DHT22;28839;52.404;9.808;2023-02-18T01:30:16;7.50;99.90
43227;DHT22;28839;52.404;9.808;2023-02-18T01:37:11;7.60;99.90
43227;DHT22;28839;52.404;9.808;2023-02-18T01:44:13;7.60;99.90
43227;DHT22;28839;52.404;9.808;2023-02-18T01:51:14;7.60;99.90
43227;DHT22;28839;52.404;9.808;2023-02-18T01:58:10;7.70;99.90
43227;DHT22;28839;52.404;9.808;2023-02-18T02:05:04;7.60;99.90
43227;DHT22;28839;52.404;9.808;2023-02-18T02:12:30;7.70;99.90
43227;DHT22;28839;52.404;9.808;2023-02-18T02:27:14;7.70;99.90
43227;DHT22;28839;52.404;9.808;2023-02-18T02:34:23;7.70;99.90
43227;DHT22;28839;52.404;9.808;2023-02-18T02:41:30;7.70;99.90
43227;DHT22;28839;52.404;9.808;2023-02-18T02:48:28;7.70;99.90
43227;DHT22;28839;52.404;9.808;2023-02-18T02:55:26;7.70;99.90
43227;DHT22;28839;52.404;9.808;2023-02-18T03:02:27;7.70;99.90
43227;DHT22;28839;52.404;9.808;2023-02-18T03:09:33;7.80;99.90
43227;DHT22;28839;52.404;9.808;2023-02-18T03:16:35;7.80;99.90
43227;DHT22;28839;52.404;9.808;2023-02-18T03:23:38;7.80;99.90
43227;DHT22;28839;52.404;9.808;2023-02-18T03:30:42;7.80;99.90
43227;DHT22;28839;52.404;9.808;2023-02-18T03:37:41;7.80;99.90
43227;DHT22;28839;52.404;9.808;2023-02-18T03:44:37;7.80;99.90
43227;DHT22;28839;52.404;9.808;2023-02-18T03:51:31;7.80;99.90
43227;DHT22;28839;52.404;9.808;2023-02-18T03:58:27;7.80;99.90
43227;DHT22;28839;52.404;9.808;2023-02-18T04:05:21;7.80;99.90
43227;DHT22;28839;52.404;9.808;2023-02-18T04:12:14;7.80;99.90
43227;DHT22;28839;52.404;9.808;2023-02-18T04:19:10;7.90;99.90
43227;DHT22;28839;52.404;9.808;2023-02-18T04:26:04;7.90;99.90
43227;DHT22;28839;52.404;9.808;2023-02-18T04:32:57;7.80;99.90
43227;DHT22;28839;52.404;9.808;2023-02-18T04:39:53;7.80;99.90
43227;DHT22;28839;52.404;9.808;2023-02-18T04:46:47;7.60;99.90
43227;DHT22;28839;52.404;9.808;2023-02-18T04:53:40;7.40;99.90
43227;DHT22;28839;52.404;9.808;2023-02-18T05:00:36;7.30;99.90
43227;DHT22;28839;52.404;9.808;2023-02-18T05:07:30;7.20;99.90
43227;DHT22;28839;52.404;9.808;2023-02-18T05:14:23;7.10;99.90
43227;DHT22;28839;52.404;9.808;2023-02-18T05:21:19;7.10;99.90
43227;DHT22;28839;52.404;9.808;2023-02-18T05:28:13;7.10;99.90
43227;DHT22;28839;52.404;9.808;2023-02-18T05:35:07;7.00;99.90
43227;DHT22;28839;52.404;9.808;2023-02-18T05:42:02;7.00;99.90
43227;DHT22;28839;52.404;9.808;2023-02-18T05:48:56;7.00;99.90
43227;DHT22;28839;52.404;9.808;2023-02-18T05:55:50;7.00;99.90
43227;DHT22;28839;52.404;9.808;2023-02-18T06:02:45;7.00;99.90
43227;DHT22;28839;52.404;9.808;2023-02-18T06:09:39;7.00;99.90
43227;DHT22;28839;52.404;9.808;2023-02-18T06:16:33;7.00;99.90
43227;DHT22;28839;52.404;9.808;2023-02-18T06:23:28;6.90;99.90
43227;DHT22;28839;52.404;9.808;2023-02-18T06:30:22;6.90;99.90
43227;DHT22;28839;52.404;9.808;2023-02-18T06:37:16;6.90;99.90
43227;DHT22;28839;52.404;9.808;2023-02-18T06:44:11;7.00;99.90
43227;DHT22;28839;52.404;9.808;2023-02-18T06:51:06;7.00;99.90
43227;DHT22;28839;52.404;9.808;2023-02-18T06:58:00;7.10;99.90
43227;DHT22;28839;52.404;9.808;2023-02-18T07:04:56;7.10;99.90
43227;DHT22;28839;52.404;9.808;2023-02-18T07:11:50;7.30;99.90
43227;DHT22;28839;52.404;9.808;2023-02-18T07:18:44;7.50;99.90
43227;DHT22;28839;52.404;9.808;2023-02-18T07:25:39;7.60;99.90
43227;DHT22;28839;52.404;9.808;2023-02-18T07:32:34;7.80;99.90
43227;DHT22;28839;52.404;9.808;2023-02-18T07:39:28;8.00;99.90
43227;DHT22;28839;52.404;9.808;2023-02-18T07:46:23;8.00;99.90
43227;DHT22;28839;52.404;9.808;2023-02-18T07:53:17;8.20;99.90
43227;DHT22;28839;52.404;9.808;2023-02-18T08:00:12;8.20;99.90
43227;DHT22;28839;52.404;9.808;2023-02-18T08:07:10;8.40;99.90
43227;DHT22;28839;52.404;9.808;2023-02-18T08:14:05;8.40;99.90
43227;DHT22;28839;52.404;9.808;2023-02-18T08:20:58;8.60;99.90
43227;DHT22;28839;52.404;9.808;2023-02-18T08:27:54;8.70;99.90
43227;DHT22;28839;52.404;9.808;2023-02-18T08:34:47;9.00;99.90
43227;DHT22;28839;52.404;9.808;2023-02-18T08:41:41;9.30;99.90
43227;DHT22;28839;52.404;9.808;2023-02-18T08:48:37;9.60;99.90
43227;DHT22;28839;52.404;9.808;2023-02-18T08:55:31;9.90;99.90
43227;DHT22;28839;52.404;9.808;2023-02-18T09:02:25;10.00;99.90
43227;DHT22;28839;52.404;9.808;2023-02-18T09:09:22;10.10;99.90
43227;DHT22;28839;52.404;9.808;2023-02-18T09:16:17;10.20;99.90
43227;DHT22;28839;52.404;9.808;2023-02-18T09:23:11;10.30;99.90
43227;DHT22;28839;52.404;9.808;2023-02-18T09:30:07;10.40;99.90
43227;DHT22;28839;52.404;9.808;2023-02-18T09:37:02;10.50;99.90
43227;DHT22;28839;52.404;9.808;2023-02-18T09:43:58;10.60;99.90
43227;DHT22;28839;52.404;9.808;2023-02-18T09:50:55;10.80;99.90
43227;DHT22;28839;52.404;9.808;2023-02-18T09:57:50;10.90;99.90
43227;DHT22;28839;52.404;9.808;2023-02-18T10:04:45;10.80;99.90
43227;DHT22;28839;52.404;9.808;2023-02-18T10:11:48;10.80;99.90
43227;DHT22;28839;52.404;9.808;2023-02-18T10:18:45;10.80;99.90
43227;DHT22;28839;52.404;9.808;2023-02-18T10:25:43;10.90;99.90
43227;DHT22;28839;52.404;9.808;2023-02-18T10:32:42;10.80;99.90
43227;DHT22;28839;52.404;9.808;2023-02-18T10:39:47;10.70;99.90
43227;DHT22;28839;52.404;9.808;2023-02-18T10:46:50;10.60;99.90
43227;DHT22;28839;52.404;9.808;2023-02-18T10:53:50;10.50;99.90
43227;DHT22;28839;52.404;9.808;2023-02-18T11:00:44;10.60;99.90
43227;DHT22;28839;52.404;9.808;2023-02-18T11:07:38;10.60;99.90
43227;DHT22;28839;52.404;9.808;2023-02-18T11:14:42;10.80;99.90
43227;DHT22;28839;52.404;9.808;2023-02-18T11:21:37;10.90;99.90
43227;DHT22;28839;52.404;9.808;2023-02-18T11:35:49;10.50;99.90
43227;DHT22;28839;52.404;9.808;2023-02-18T11:42:44;10.30;99.90
43227;DHT22;28839;52.404;9.808;2023-02-18T11:49:38;10.30;99.90
43227;DHT22;28839;52.404;9.808;2023-02-18T11:56:34;10.30;99.90
43227;DHT22;28839;52.404;9.808;2023-02-18T12:03:32;10.20;99.90
43227;DHT22;28839;52.404;9.808;2023-02-18T12:10:30;10.20;99.90
43227;DHT22;28839;52.404;9.808;2023-02-18T12:24:56;10.00;99.90
43227;DHT22;28839;52.404;9.808;2023-02-18T12:32:08;10.10;99.90
43227;DHT22;28839;52.404;9.808;2023-02-18T12:39:11;10.00;99.90
43227;DHT22;28839;52.404;9.808;2023-02-18T12:46:23;9.90;99.90
43227;DHT22;28839;52.404;9.808;2023-02-18T12:53:46;9.70;99.90
43227;DHT22;28839;52.404;9.808;2023-02-18T13:00:59;9.80;99.90
43227;DHT22;28839;52.404;9.808;2023-02-18T13:08:06;9.90;99.90
43227;DHT22;28839;52.404;9.808;2023-02-18T13:15:12;9.80;99.90
43227;DHT22;28839;52.404;9.808;2023-02-18T13:22:11;9.80;99.90
43227;DHT22;28839;52.404;9.808;2023-02-18T13:29:18;9.90;99.90
43227;DHT22;28839;52.404;9.808;2023-02-18T13:36:24;9.90;99.90
43227;DHT22;28839;52.404;9.808;2023-02-18T13:43:30;9.80;99.90
43227;DHT22;28839;52.404;9.808;2023-02-18T13:50:30;9.80;99.90
43227;DHT22;28839;52.404;9.808;2023-02-18T13:57:26;9.80;99.90
43227;DHT22;28839;52.404;9.808;2023-02-18T14:04:51;9.70;99.90
43227;DHT22;28839;52.404;9.808;2023-02-18T14:11:53;9.70;99.90
43227;DHT22;28839;52.404;9.808;2023-02-18T14:18:59;9.80;99.90
43227;DHT22;28839;52.404;9.808;2023-02-18T14:25:57;9.90;99.90
43227;DHT22;28839;52.404;9.808;2023-02-18T14:32:58;9.80;99.90
43227;DHT22;28839;52.404;9.808;2023-02-18T14:40:00;9.80;99.90
43227;DHT22;28839;52.404;9.808;2023-02-18T14:47:09;9.80;99.90
43227;DHT22;28839;52.404;9.808;2023-02-18T14:54:18;9.80;99.90
43227;DHT22;28839;52.404;9.808;2023-02-18T15:01:15;9.90;99.90
43227;DHT22;28839;52.404;9.808;2023-02-18T15:08:15;9.90;99.90
43227;DHT22;28839;52.404;9.808;2023-02-18T15:15:12;10.00;99.90
43227;DHT22;28839;52.404;9.808;2023-02-18T15:22:14;10.00;99.90
43227;DHT22;28839;52.404;9.808;2023-02-18T15:29:17;10.00;99.90
43227;DHT22;28839;52.404;9.808;2023-02-18T15:36:13;9.90;99.90
43227;DHT22;28839;52.404;9.808;2023-02-18T15:43:07;9.90;99.90
43227;DHT22;28839;52.404;9.808;2023-02-18T15:50:03;9.90;99.90
43227;DHT22;28839;52.404;9.808;2023-02-18T15:57:00;9.90;99.90
43227;DHT22;28839;52.404;9.808;2023-02-18T16:03:55;9.90;99.90
43227;DHT22;28839;52.404;9.808;2023-02-18T16:10:53;9.90;99.90
43227;DHT22;28839;52.404;9.808;2023-02-18T16:17:48;9.90;99.90
43227;DHT22;28839;52.404;9.808;2023-02-18T16:24:42;9.90;99.90
43227;DHT22;28839;52.404;9.808;2023-02-18T16:31:42;9.90;99.90
43227;DHT22;28839;52.404;9.808;2023-02-18T16:38:36;9.90;99.90
43227;DHT22;28839;52.404;9.808;2023-02-18T16:45:35;9.90;99.90
43227;DHT22;28839;52.404;9.808;2023-02-18T16:52:30;9.90;99.90
43227;DHT22;28839;52.404;9.808;2023-02-18T16:59:24;9.90;99.90
43227;DHT22;28839;52.404;9.808;2023-02-18T17:06:19;9.90;99.90
43227;DHT22;28839;52.404;9.808;2023-02-18T17:13:15;9.90;99.90
43227;DHT22;28839;52.404;9.808;2023-02-18T17:20:09;9.90;99.90
43227;DHT22;28839;52.404;9.808;2023-02-18T17:27:06;9.90;99.90
43227;DHT22;28839;52.404;9.808;2023-02-18T17:34:04;9.90;99.90
43227;DHT22;28839;52.404;9.808;2023-02-18T17:40:59;10.00;99.90
43227;DHT22;28839;52.404;9.808;2023-02-18T17:47:53;9.90;99.90
43227;DHT22;28839;52.404;9.808;2023-02-18T17:54:48;10.00;99.90
43227;DHT22;28839;52.404;9.808;2023-02-18T18:01:42;9.80;99.90
43227;DHT22;28839;52.404;9.808;2023-02-18T18:08:36;9.90;99.90
43227;DHT22;28839;52.404;9.808;2023-02-18T18:15:34;9.90;99.90
43227;DHT22;28839;52.404;9.808;2023-02-18T18:22:28;9.80;99.90
43227;DHT22;28839;52.404;9.808;2023-02-18T18:29:22;9.80;99.90
43227;DHT22;28839;52.404;9.808;2023-02-18T18:36:18;9.90;99.90
43227;DHT22;28839;52.404;9.808;2023-02-18T18:43:35;10.00;99.90
43227;DHT22;28839;52.404;9.808;2023-02-18T18:50:31;9.90;99.90
43227;DHT22;28839;52.404;9.808;2023-02-18T18:57:30;9.90;99.90
43227;DHT22;28839;52.404;9.808;2023-02-18T19:04:24;9.90;99.90
43227;DHT22;28839;52.404;9.808;2023-02-18T19:11:19;9.80;99.90
43227;DHT22;28839;52.404;9.808;2023-02-18T19:18:16;9.80;99.90
43227;DHT22;28839;52.404;9.808;2023-02-18T19:25:11;9.80;99.90
43227;DHT22;28839;52.404;9.808;2023-02-18T19:32:05;9.80;99.90
43227;DHT22;28839;52.404;9.808;2023-02-18T19:39:00;9.80;99.90
43227;DHT22;28839;52.404;9.808;2023-02-18T19:45:54;9.70;99.90
43227;DHT22;28839;52.404;9.808;2023-02-18T19:52:50;9.80;99.90
43227;DHT22;28839;52.404;9.808;2023-02-18T19:59:45;9.70;99.90
43227;DHT22;28839;52.404;9.808;2023-02-18T20:06:39;9.60;99.90
43227;DHT22;28839;52.404;9.808;2023-02-18T20:13:33;9.60;99.90
43227;DHT22;28839;52.404;9.808;2023-02-18T20:20:29;9.50;99.90
43227;DHT22;28839;52.404;9.808;2023-02-18T20:27:22;9.50;99.90
43227;DHT22;28839;52.404;9.808;2023-02-18T20:34:17;9.40;99.90
43227;DHT22;28839;52.404;9.808;2023-02-18T20:41:13;9.40;99.90
43227;DHT22;28839;52.404;9.808;2023-02-18T20:48:09;9.40;99.90
43227;DHT22;28839;52.404;9.808;2023-02-18T20:55:03;9.40;99.90
43227;DHT22;28839;52.404;9.808;2023-02-18T21:01:59;9.40;99.90
43227;DHT22;28839;52.404;9.808;2023-02-18T21:08:53;9.40;99.90
43227;DHT22;28839;52.404;9.808;2023-02-18T21:15:48;9.40;99.90
43227;DHT22;28839;52.404;9.808;2023-02-18T21:22:43;9.30;99.90
43227;DHT22;28839;52.404;9.808;2023-02-18T21:29:37;9.40;99.90
43227;DHT22;28839;52.404;9.808;2023-02-18T21:36:33;9.40;99.90
43227;DHT22;28839;52.404;9.808;2023-02-18T21:43:28;9.30;99.90
43227;DHT22;28839;52.404;9.808;2023-02-18T21:50:22;9.30;99.90
43227;DHT22;28839;52.404;9.808;2023-02-18T21:57:19;9.30;99.90
43227;DHT22;28839;52.404;9.808;2023-02-18T22:04:15;9.30;99.90
43227;DHT22;28839;52.404;9.808;2023-02-18T22:11:09;9.30;99.90
43227;DHT22;28839;52.404;9.808;2023-02-18T22:18:03;9.30;99.90
43227;DHT22;28839;52.404;9.808;2023-02-18T22:24:58;9.30;99.90
43227;DHT22;28839;52.404;9.808;2023-02-18T22:31:52;9.30;99.90
43227;DHT22;28839;52.404;9.808;2023-02-18T22:38:47;9.30;99.90
43227;DHT22;28839;52.404;9.808;2023-02-18T22:45:42;9.30;99.90
43227;DHT22;28839;52.404;9.808;2023-02-18T22:52:36;9.30;99.90
43227;DHT22;28839;52.404;9.808;2023-02-18T22:59:30;9.30;99.90
43227;DHT22;28839;52.404;9.808;2023-02-18T23:06:25;9.20;99.90
43227;DHT22;28839;52.404;9.808;2023-02-18T23:13:19;9.20;99.90
43227;DHT22;28839;52.404;9.808;2023-02-18T23:20:13;9.20;99.90
43227;DHT22;28839;52.404;9.808;2023-02-18T23:27:09;9.10;99.90
43227;DHT22;28839;52.404;9.808;2023-02-18T23:34:05;9.10;99.90
43227;DHT22;28839;52.404;9.808;2023-02-18T23:40:59;9.10;99.90
43227;DHT22;28839;52.404;9.808;2023-02-18T23:47:57;9.10;99.90
43227;DHT22;28839;52.404;9.808;2023-02-18T23:54:51;9.10;99.90
